Главная страница
METAR-TAF:

METAR-TAF

Аэропорты :

Ботсфьорд, Норвегия

широта: 70-38N, долгота: 029-44E, высота над уровнем моря: 10 м

Текущие метеонаблюдения

Эта сводка был подготовлена 39 минут назад, в 19:20 UTC
Ветер 3 Узел от западный, изменяющийся между юго-западный и северо-западный
Температура 6°C
Влажность 87%
Давление 1017 hPa
Видимость 10 км и более

METAR: ENBS 131920Z AUTO 26003KT 220V310 9999 OVC180/// 06/04 Q1017

Время: 21:59 (19:59 UTC)

Прогноз

Эта сводка был подготовлена 5 часа и 59 минут назад, в 14:00 UTC
Прогноз действительный с 13-го 15 UTC до 13-го 22 UTC
Ветер 8 Узел от северо-северо-восточный
Видимость 10 км и более
небольшая облачность на высоте 2000 фута
Отдельные облака на высоте 6000 фута
Вероятность 40% :
временами
С 13-го 15 UTC до 13-го 20 UTC
Рассеянная облачность на высоте 1400 фута

TAF: ENBS 131400Z 1315/1322 03008KT 9999 FEW020 SCT060 PROB40 TEMPO 1315/1320 BKN014

Метеонаблюдения и прогнозы для более 4000 аэропортов (сводки METAR и TAF).

Имеющиеся станции представлены на карте желтыми и красными точками.

Чтобы увидеть название станции, наведите на нее мышь.

Затем щелкните, чтобы увидеть метеонаблюдения и метеопрогнозы.

Управление картой: чтобы увеличить масштаб, щелкните зеленые кнопки с черным крестиком; чтобы уменьшить масштаб, щелкните зеленую кнопку с тире; для просмотра соседних карт щелкайте зеленые стрелки.


METAR-TAF: